sensor_id;sensor_type;location;lat;lon;timestamp;pressure;altitude;pressure_sealevel;temperature;humidity
61528;BME280;47395;42.032;-8.634;2022-07-21T00:01:01;101069.13;;;24.34;60.32
61528;BME280;47395;42.032;-8.634;2022-07-21T00:03:02;101085.66;;;24.13;61.62
61528;BME280;47395;42.032;-8.634;2022-07-21T00:05:04;101079.41;;;24.12;60.81
61528;BME280;47395;42.032;-8.634;2022-07-21T00:07:05;101080.41;;;24.11;61.16
61528;BME280;47395;42.032;-8.634;2022-07-21T00:09:06;101072.94;;;24.05;61.69
61528;BME280;47395;42.032;-8.634;2022-07-21T00:11:06;101068.16;;;23.99;60.92
61528;BME280;47395;42.032;-8.634;2022-07-21T00:13:07;101061.47;;;24.03;60.27
61528;BME280;47395;42.032;-8.634;2022-07-21T00:15:10;101068.53;;;24.04;60.68
61528;BME280;47395;42.032;-8.634;2022-07-21T00:17:11;101059.94;;;24.01;60.07
61528;BME280;47395;42.032;-8.634;2022-07-21T00:19:12;101065.94;;;23.76;62.57
61528;BME280;47395;42.032;-8.634;2022-07-21T00:21:13;101060.66;;;23.84;62.06
61528;BME280;47395;42.032;-8.634;2022-07-21T00:23:14;101073.88;;;23.78;61.98
61528;BME280;47395;42.032;-8.634;2022-07-21T00:25:16;101061.19;;;23.70;61.90
61528;BME280;47395;42.032;-8.634;2022-07-21T00:27:17;101062.25;;;23.77;61.77
61528;BME280;47395;42.032;-8.634;2022-07-21T00:29:18;101063.72;;;23.71;61.75
61528;BME280;47395;42.032;-8.634;2022-07-21T00:31:19;101071.19;;;23.78;61.29
61528;BME280;47395;42.032;-8.634;2022-07-21T00:33:19;101070.81;;;23.72;61.16
61528;BME280;47395;42.032;-8.634;2022-07-21T00:35:20;101066.09;;;23.75;61.49
61528;BME280;47395;42.032;-8.634;2022-07-21T00:37:21;101064.66;;;23.80;59.49
61528;BME280;47395;42.032;-8.634;2022-07-21T00:39:24;101049.03;;;23.84;60.67
61528;BME280;47395;42.032;-8.634;2022-07-21T00:41:25;101050.41;;;23.88;59.85
61528;BME280;47395;42.032;-8.634;2022-07-21T00:43:26;101043.06;;;23.90;59.71
61528;BME280;47395;42.032;-8.634;2022-07-21T00:45:27;101047.00;;;24.04;58.92
61528;BME280;47395;42.032;-8.634;2022-07-21T00:47:29;101055.47;;;24.09;57.94
61528;BME280;47395;42.032;-8.634;2022-07-21T00:49:30;101044.56;;;24.11;58.69
61528;BME280;47395;42.032;-8.634;2022-07-21T00:51:31;101056.34;;;24.10;58.32
61528;BME280;47395;42.032;-8.634;2022-07-21T00:53:32;101054.63;;;24.09;59.02
61528;BME280;47395;42.032;-8.634;2022-07-21T00:55:33;101055.09;;;24.04;58.49
61528;BME280;47395;42.032;-8.634;2022-07-21T00:57:34;101047.50;;;23.99;59.10
61528;BME280;47395;42.032;-8.634;2022-07-21T00:59:35;101051.66;;;24.12;58.95
61528;BME280;47395;42.032;-8.634;2022-07-21T01:01:37;101038.47;;;24.09;58.62
61528;BME280;47395;42.032;-8.634;2022-07-21T01:03:38;101046.47;;;24.01;58.31
61528;BME280;47395;42.032;-8.634;2022-07-21T01:05:39;101048.25;;;24.10;59.66
61528;BME280;47395;42.032;-8.634;2022-07-21T01:07:53;101053.34;;;24.13;58.73
61528;BME280;47395;42.032;-8.634;2022-07-21T01:09:55;101044.72;;;24.09;58.59
61528;BME280;47395;42.032;-8.634;2022-07-21T01:11:57;101045.56;;;24.10;59.21
61528;BME280;47395;42.032;-8.634;2022-07-21T01:13:59;101040.19;;;24.10;59.20
61528;BME280;47395;42.032;-8.634;2022-07-21T01:16:00;101045.03;;;24.06;59.54
61528;BME280;47395;42.032;-8.634;2022-07-21T01:18:01;101047.41;;;24.09;59.09
61528;BME280;47395;42.032;-8.634;2022-07-21T01:20:05;101057.88;;;24.12;59.70
61528;BME280;47395;42.032;-8.634;2022-07-21T01:22:06;101057.97;;;24.03;58.79
61528;BME280;47395;42.032;-8.634;2022-07-21T01:24:08;101050.84;;;24.02;59.56
61528;BME280;47395;42.032;-8.634;2022-07-21T01:26:09;101053.91;;;24.07;59.57
61528;BME280;47395;42.032;-8.634;2022-07-21T01:28:10;101044.81;;;23.81;58.88
61528;BME280;47395;42.032;-8.634;2022-07-21T01:30:12;101053.25;;;23.86;59.38
61528;BME280;47395;42.032;-8.634;2022-07-21T01:32:13;101052.66;;;23.75;59.25
61528;BME280;47395;42.032;-8.634;2022-07-21T01:34:14;101054.66;;;23.72;59.57
61528;BME280;47395;42.032;-8.634;2022-07-21T01:36:14;101053.59;;;23.65;60.12
61528;BME280;47395;42.032;-8.634;2022-07-21T01:38:15;101058.03;;;23.75;59.81
61528;BME280;47395;42.032;-8.634;2022-07-21T01:40:35;101052.19;;;23.61;59.67
61528;BME280;47395;42.032;-8.634;2022-07-21T01:42:54;101048.72;;;23.69;60.43
61528;BME280;47395;42.032;-8.634;2022-07-21T01:44:55;101050.44;;;23.70;60.71
61528;BME280;47395;42.032;-8.634;2022-07-21T01:46:57;101049.06;;;23.66;59.55
61528;BME280;47395;42.032;-8.634;2022-07-21T01:48:58;101051.13;;;23.54;59.78
61528;BME280;47395;42.032;-8.634;2022-07-21T01:50:59;101066.50;;;23.62;60.18
61528;BME280;47395;42.032;-8.634;2022-07-21T01:53:00;101053.06;;;23.62;60.37
61528;BME280;47395;42.032;-8.634;2022-07-21T01:55:01;101051.91;;;23.64;60.29
61528;BME280;47395;42.032;-8.634;2022-07-21T01:57:02;101053.34;;;23.58;60.51
61528;BME280;47395;42.032;-8.634;2022-07-21T01:59:03;101054.66;;;23.54;60.65
61528;BME280;47395;42.032;-8.634;2022-07-21T02:01:05;101050.44;;;23.52;59.69
61528;BME280;47395;42.032;-8.634;2022-07-21T02:03:06;101055.34;;;23.56;60.27
61528;BME280;47395;42.032;-8.634;2022-07-21T02:05:07;101055.41;;;23.46;59.89
61528;BME280;47395;42.032;-8.634;2022-07-21T02:07:08;101047.41;;;23.37;60.89
61528;BME280;47395;42.032;-8.634;2022-07-21T02:09:09;101049.16;;;23.28;60.35
61528;BME280;47395;42.032;-8.634;2022-07-21T02:11:10;101039.53;;;23.25;61.65
61528;BME280;47395;42.032;-8.634;2022-07-21T02:13:11;101039.53;;;23.25;61.40
61528;BME280;47395;42.032;-8.634;2022-07-21T02:15:13;101035.47;;;23.21;61.40
61528;BME280;47395;42.032;-8.634;2022-07-21T02:17:13;101037.53;;;23.27;61.68
61528;BME280;47395;42.032;-8.634;2022-07-21T02:19:14;101043.97;;;23.16;61.40
61528;BME280;47395;42.032;-8.634;2022-07-21T02:21:15;101029.84;;;23.14;61.72
61528;BME280;47395;42.032;-8.634;2022-07-21T02:23:17;101029.91;;;23.04;62.32
61528;BME280;47395;42.032;-8.634;2022-07-21T02:25:18;101029.81;;;22.96;62.07
61528;BME280;47395;42.032;-8.634;2022-07-21T02:27:19;101025.91;;;23.08;62.35
61528;BME280;47395;42.032;-8.634;2022-07-21T02:29:20;101031.69;;;23.14;61.92
61528;BME280;47395;42.032;-8.634;2022-07-21T02:31:21;101027.06;;;23.06;61.47
61528;BME280;47395;42.032;-8.634;2022-07-21T02:33:22;101028.50;;;23.00;62.44
61528;BME280;47395;42.032;-8.634;2022-07-21T02:35:23;101028.03;;;23.05;61.27
61528;BME280;47395;42.032;-8.634;2022-07-21T02:37:24;101024.78;;;23.11;62.26
61528;BME280;47395;42.032;-8.634;2022-07-21T02:39:25;101022.84;;;23.21;61.33
61528;BME280;47395;42.032;-8.634;2022-07-21T02:41:26;101019.88;;;23.25;60.89
61528;BME280;47395;42.032;-8.634;2022-07-21T02:43:27;101023.22;;;23.08;60.76
61528;BME280;47395;42.032;-8.634;2022-07-21T02:45:28;101028.84;;;23.15;62.01
61528;BME280;47395;42.032;-8.634;2022-07-21T02:47:30;101024.78;;;23.11;61.12
61528;BME280;47395;42.032;-8.634;2022-07-21T02:49:31;101036.63;;;23.18;61.91
61528;BME280;47395;42.032;-8.634;2022-07-21T02:51:31;101037.00;;;23.24;61.45
61528;BME280;47395;42.032;-8.634;2022-07-21T02:53:32;101028.69;;;23.17;61.11
61528;BME280;47395;42.032;-8.634;2022-07-21T02:55:34;101033.16;;;23.26;61.43
61528;BME280;47395;42.032;-8.634;2022-07-21T02:57:35;101029.53;;;23.17;61.25
61528;BME280;47395;42.032;-8.634;2022-07-21T02:59:36;101019.03;;;23.24;61.29
61528;BME280;47395;42.032;-8.634;2022-07-21T03:01:37;101018.53;;;23.11;61.14
61528;BME280;47395;42.032;-8.634;2022-07-21T03:03:37;101021.94;;;23.13;61.69
61528;BME280;47395;42.032;-8.634;2022-07-21T03:05:40;101018.00;;;23.07;61.85
61528;BME280;47395;42.032;-8.634;2022-07-21T03:07:41;101007.41;;;23.05;61.81
61528;BME280;47395;42.032;-8.634;2022-07-21T03:09:42;101009.75;;;23.18;61.82
61528;BME280;47395;42.032;-8.634;2022-07-21T03:11:43;101018.69;;;23.09;61.28
61528;BME280;47395;42.032;-8.634;2022-07-21T03:13:44;101019.19;;;22.94;60.93
61528;BME280;47395;42.032;-8.634;2022-07-21T03:15:45;101015.56;;;22.86;61.06
61528;BME280;47395;42.032;-8.634;2022-07-21T03:17:45;101010.75;;;22.89;62.36
61528;BME280;47395;42.032;-8.634;2022-07-21T03:19:46;101004.22;;;22.92;61.76
61528;BME280;47395;42.032;-8.634;2022-07-21T03:21:47;101008.16;;;22.98;61.52
61528;BME280;47395;42.032;-8.634;2022-07-21T03:23:48;101016.75;;;23.01;61.60
61528;BME280;47395;42.032;-8.634;2022-07-21T03:25:49;101016.06;;;22.99;61.73
61528;BME280;47395;42.032;-8.634;2022-07-21T03:27:50;101018.75;;;22.99;61.05
61528;BME280;47395;42.032;-8.634;2022-07-21T03:29:50;101014.22;;;23.00;61.98
61528;BME280;47395;42.032;-8.634;2022-07-21T03:31:51;101017.47;;;23.03;61.84
61528;BME280;47395;42.032;-8.634;2022-07-21T03:33:52;101012.44;;;22.90;61.98
61528;BME280;47395;42.032;-8.634;2022-07-21T03:35:53;101003.13;;;22.85;61.70
61528;BME280;47395;42.032;-8.634;2022-07-21T03:37:56;101013.28;;;22.91;61.89
61528;BME280;47395;42.032;-8.634;2022-07-21T03:39:57;101016.66;;;22.93;61.82
61528;BME280;47395;42.032;-8.634;2022-07-21T03:41:58;101010.13;;;22.95;61.94
61528;BME280;47395;42.032;-8.634;2022-07-21T03:43:59;101017.66;;;22.92;61.82
61528;BME280;47395;42.032;-8.634;2022-07-21T03:46:00;101023.13;;;23.00;61.67
61528;BME280;47395;42.032;-8.634;2022-07-21T03:48:02;101012.25;;;23.02;61.46
61528;BME280;47395;42.032;-8.634;2022-07-21T03:50:04;101010.47;;;22.92;62.24
61528;BME280;47395;42.032;-8.634;2022-07-21T03:52:05;101016.75;;;22.73;62.37
61528;BME280;47395;42.032;-8.634;2022-07-21T03:54:06;101010.78;;;22.79;61.71
61528;BME280;47395;42.032;-8.634;2022-07-21T03:56:07;101001.47;;;22.74;62.31
61528;BME280;47395;42.032;-8.634;2022-07-21T03:58:08;101002.59;;;22.81;62.25
61528;BME280;47395;42.032;-8.634;2022-07-21T04:00:11;101009.00;;;22.70;62.64
61528;BME280;47395;42.032;-8.634;2022-07-21T04:07:01;101019.69;;;22.42;62.88
61528;BME280;47395;42.032;-8.634;2022-07-21T04:09:03;101019.56;;;22.24;63.28
61528;BME280;47395;42.032;-8.634;2022-07-21T04:11:04;101023.53;;;22.29;63.22
61528;BME280;47395;42.032;-8.634;2022-07-21T04:13:08;101035.53;;;22.15;63.85
61528;BME280;47395;42.032;-8.634;2022-07-21T04:15:11;101033.88;;;22.04;64.60
61528;BME280;47395;42.032;-8.634;2022-07-21T04:17:12;101037.00;;;22.00;65.56
61528;BME280;47395;42.032;-8.634;2022-07-21T04:19:13;101035.84;;;22.02;66.35
61528;BME280;47395;42.032;-8.634;2022-07-21T04:21:14;101041.53;;;21.80;66.08
61528;BME280;47395;42.032;-8.634;2022-07-21T04:23:15;101032.34;;;21.72;65.72
61528;BME280;47395;42.032;-8.634;2022-07-21T04:25:17;101036.38;;;21.67;65.50
61528;BME280;47395;42.032;-8.634;2022-07-21T04:27:18;101043.59;;;21.66;65.54
61528;BME280;47395;42.032;-8.634;2022-07-21T04:29:19;101041.19;;;21.63;65.54
61528;BME280;47395;42.032;-8.634;2022-07-21T04:31:19;101028.94;;;21.70;65.73
61528;BME280;47395;42.032;-8.634;2022-07-21T04:33:20;101034.59;;;21.77;65.66
61528;BME280;47395;42.032;-8.634;2022-07-21T04:35:21;101039.84;;;21.78;65.76
61528;BME280;47395;42.032;-8.634;2022-07-21T04:37:22;101040.38;;;22.02;65.31
61528;BME280;47395;42.032;-8.634;2022-07-21T04:39:23;101024.69;;;22.07;64.75
61528;BME280;47395;42.032;-8.634;2022-07-21T04:41:24;101037.41;;;22.15;64.43
61528;BME280;47395;42.032;-8.634;2022-07-21T04:43:25;101039.78;;;22.18;64.82
61528;BME280;47395;42.032;-8.634;2022-07-21T04:45:25;101041.78;;;22.16;63.85
61528;BME280;47395;42.032;-8.634;2022-07-21T04:47:27;101035.28;;;22.09;63.89
61528;BME280;47395;42.032;-8.634;2022-07-21T04:49:28;101034.72;;;22.05;64.80
61528;BME280;47395;42.032;-8.634;2022-07-21T04:51:29;101037.53;;;22.13;64.00
61528;BME280;47395;42.032;-8.634;2022-07-21T04:53:30;101039.22;;;22.04;64.32
61528;BME280;47395;42.032;-8.634;2022-07-21T04:55:31;101035.72;;;21.94;64.93
61528;BME280;47395;42.032;-8.634;2022-07-21T04:57:45;101035.84;;;22.02;64.25
61528;BME280;47395;42.032;-8.634;2022-07-21T04:59:46;101035.84;;;21.83;65.04
61528;BME280;47395;42.032;-8.634;2022-07-21T05:01:47;101031.63;;;21.70;65.58
61528;BME280;47395;42.032;-8.634;2022-07-21T05:03:48;101044.28;;;21.58;66.53
61528;BME280;47395;42.032;-8.634;2022-07-21T05:05:50;101050.19;;;21.42;67.38
61528;BME280;47395;42.032;-8.634;2022-07-21T05:07:51;101038.66;;;21.42;67.73
61528;BME280;47395;42.032;-8.634;2022-07-21T05:09:51;101048.47;;;21.31;67.81
61528;BME280;47395;42.032;-8.634;2022-07-21T05:11:52;101045.81;;;21.31;67.70
61528;BME280;47395;42.032;-8.634;2022-07-21T05:13:53;101041.13;;;21.23;67.84
61528;BME280;47395;42.032;-8.634;2022-07-21T05:15:54;101044.13;;;21.30;67.71
61528;BME280;47395;42.032;-8.634;2022-07-21T05:17:55;101053.84;;;21.31;67.61
61528;BME280;47395;42.032;-8.634;2022-07-21T05:19:56;101054.13;;;21.28;67.45
61528;BME280;47395;42.032;-8.634;2022-07-21T05:21:57;101044.97;;;21.31;67.44
61528;BME280;47395;42.032;-8.634;2022-07-21T05:23:58;101049.47;;;21.30;67.29
61528;BME280;47395;42.032;-8.634;2022-07-21T05:25:59;101042.81;;;21.24;67.18
61528;BME280;47395;42.032;-8.634;2022-07-21T05:27:59;101035.22;;;21.20;67.45
61528;BME280;47395;42.032;-8.634;2022-07-21T05:30:00;101034.97;;;21.43;67.24
61528;BME280;47395;42.032;-8.634;2022-07-21T05:32:01;101030.91;;;21.48;66.62
61528;BME280;47395;42.032;-8.634;2022-07-21T05:34:02;101039.63;;;21.31;67.23
61528;BME280;47395;42.032;-8.634;2022-07-21T05:36:03;101036.63;;;21.24;67.23
61528;BME280;47395;42.032;-8.634;2022-07-21T05:38:04;101042.97;;;21.33;67.02
61528;BME280;47395;42.032;-8.634;2022-07-21T05:40:08;101049.22;;;21.43;66.78
61528;BME280;47395;42.032;-8.634;2022-07-21T05:42:09;101042.44;;;21.39;66.89
61528;BME280;47395;42.032;-8.634;2022-07-21T05:44:10;101042.16;;;21.32;67.41
61528;BME280;47395;42.032;-8.634;2022-07-21T05:46:10;101044.84;;;21.32;67.04
61528;BME280;47395;42.032;-8.634;2022-07-21T05:48:11;101051.31;;;21.39;66.71
61528;BME280;47395;42.032;-8.634;2022-07-21T05:50:12;101052.88;;;21.42;67.14
61528;BME280;47395;42.032;-8.634;2022-07-21T05:52:13;101051.06;;;21.43;66.45
61528;BME280;47395;42.032;-8.634;2022-07-21T05:54:14;101048.50;;;21.41;67.26
61528;BME280;47395;42.032;-8.634;2022-07-21T05:56:15;101047.81;;;21.59;66.08
61528;BME280;47395;42.032;-8.634;2022-07-21T05:58:16;101061.81;;;22.02;65.47
61528;BME280;47395;42.032;-8.634;2022-07-21T06:00:19;101051.50;;;22.27;64.49
61528;BME280;47395;42.032;-8.634;2022-07-21T06:02:20;101052.88;;;22.41;63.85
61528;BME280;47395;42.032;-8.634;2022-07-21T06:04:20;101051.03;;;22.61;62.49
61528;BME280;47395;42.032;-8.634;2022-07-21T06:06:21;101050.94;;;22.81;62.43
61528;BME280;47395;42.032;-8.634;2022-07-21T06:08:23;101055.00;;;23.13;61.40
61528;BME280;47395;42.032;-8.634;2022-07-21T06:10:24;101062.09;;;23.14;60.60
61528;BME280;47395;42.032;-8.634;2022-07-21T06:12:25;101062.47;;;23.47;60.35
61528;BME280;47395;42.032;-8.634;2022-07-21T06:14:26;101060.88;;;23.73;59.25
61528;BME280;47395;42.032;-8.634;2022-07-21T06:16:27;101055.19;;;23.76;58.72
61528;BME280;47395;42.032;-8.634;2022-07-21T06:18:27;101066.81;;;23.77;58.85
61528;BME280;47395;42.032;-8.634;2022-07-21T06:20:28;101068.84;;;23.65;58.73
61528;BME280;47395;42.032;-8.634;2022-07-21T06:22:29;101068.94;;;23.91;58.32
61528;BME280;47395;42.032;-8.634;2022-07-21T06:24:30;101076.78;;;24.21;57.48
61528;BME280;47395;42.032;-8.634;2022-07-21T06:26:31;101072.94;;;24.50;56.79
61528;BME280;47395;42.032;-8.634;2022-07-21T06:28:32;101067.94;;;24.55;56.00
61528;BME280;47395;42.032;-8.634;2022-07-21T06:30:33;101073.22;;;24.73;56.13
61528;BME280;47395;42.032;-8.634;2022-07-21T06:35:19;101068.59;;;25.27;54.29
61528;BME280;47395;42.032;-8.634;2022-07-21T06:37:21;101072.34;;;25.34;53.87
61528;BME280;47395;42.032;-8.634;2022-07-21T06:39:22;101064.16;;;25.69;53.47
61528;BME280;47395;42.032;-8.634;2022-07-21T06:41:23;101060.28;;;25.63;52.74
61528;BME280;47395;42.032;-8.634;2022-07-21T06:43:24;101063.44;;;26.50;51.39
61528;BME280;47395;42.032;-8.634;2022-07-21T06:45:25;101071.94;;;26.47;51.07
61528;BME280;47395;42.032;-8.634;2022-07-21T06:47:26;101069.59;;;26.84;49.99
61528;BME280;47395;42.032;-8.634;2022-07-21T06:49:27;101062.41;;;27.16;48.92
61528;BME280;47395;42.032;-8.634;2022-07-21T06:51:28;101067.34;;;27.68;48.16
61528;BME280;47395;42.032;-8.634;2022-07-21T06:53:29;101073.16;;;28.03;47.05
61528;BME280;47395;42.032;-8.634;2022-07-21T06:55:30;101066.53;;;28.44;45.77
61528;BME280;47395;42.032;-8.634;2022-07-21T06:57:33;101065.50;;;28.30;46.18
61528;BME280;47395;42.032;-8.634;2022-07-21T06:59:34;101064.00;;;28.27;45.81
61528;BME280;47395;42.032;-8.634;2022-07-21T07:01:35;101062.31;;;28.57;45.46
61528;BME280;47395;42.032;-8.634;2022-07-21T07:03:37;101074.19;;;28.86;44.78
61528;BME280;47395;42.032;-8.634;2022-07-21T07:05:38;101072.16;;;30.05;43.37
61528;BME280;47395;42.032;-8.634;2022-07-21T07:07:39;101070.13;;;31.27;40.68
61528;BME280;47395;42.032;-8.634;2022-07-21T07:09:40;101071.50;;;31.85;39.37
61528;BME280;47395;42.032;-8.634;2022-07-21T07:11:41;101072.38;;;32.06;38.90
61528;BME280;47395;42.032;-8.634;2022-07-21T07:13:42;101066.88;;;32.53;36.90
61528;BME280;47395;42.032;-8.634;2022-07-21T07:15:44;101071.75;;;32.97;36.82
61528;BME280;47395;42.032;-8.634;2022-07-21T07:17:45;101075.66;;;32.62;37.51
61528;BME280;47395;42.032;-8.634;2022-07-21T07:19:46;101075.72;;;32.35;37.83
61528;BME280;47395;42.032;-8.634;2022-07-21T07:21:48;101081.16;;;33.86;35.02
61528;BME280;47395;42.032;-8.634;2022-07-21T07:23:49;101079.97;;;34.01;35.21
61528;BME280;47395;42.032;-8.634;2022-07-21T07:25:50;101079.06;;;33.49;35.24
61528;BME280;47395;42.032;-8.634;2022-07-21T07:27:51;101066.16;;;33.31;34.76
61528;BME280;47395;42.032;-8.634;2022-07-21T07:29:53;101075.88;;;32.61;35.90
61528;BME280;47395;42.032;-8.634;2022-07-21T07:31:54;101075.50;;;32.23;36.44
61528;BME280;47395;42.032;-8.634;2022-07-21T07:33:55;101072.75;;;32.43;36.25
61528;BME280;47395;42.032;-8.634;2022-07-21T07:35:57;101070.91;;;32.03;36.46
61528;BME280;47395;42.032;-8.634;2022-07-21T07:37:58;101082.00;;;32.15;36.92
61528;BME280;47395;42.032;-8.634;2022-07-21T07:39:59;101083.69;;;31.89;37.93
61528;BME280;47395;42.032;-8.634;2022-07-21T07:42:00;101079.72;;;32.46;36.50
61528;BME280;47395;42.032;-8.634;2022-07-21T07:44:01;101073.19;;;33.52;35.06
61528;BME280;47395;42.032;-8.634;2022-07-21T07:46:04;101060.88;;;32.90;35.78
61528;BME280;47395;42.032;-8.634;2022-07-21T07:48:06;101077.41;;;33.48;35.02
61528;BME280;47395;42.032;-8.634;2022-07-21T07:50:09;101068.50;;;33.59;34.66
61528;BME280;47395;42.032;-8.634;2022-07-21T07:52:10;101077.09;;;34.40;33.40
61528;BME280;47395;42.032;-8.634;2022-07-21T07:54:11;101079.06;;;34.88;32.63
61528;BME280;47395;42.032;-8.634;2022-07-21T07:56:12;101080.50;;;34.35;32.69
61528;BME280;47395;42.032;-8.634;2022-07-21T07:58:13;101080.22;;;34.43;33.07
61528;BME280;47395;42.032;-8.634;2022-07-21T08:00:16;101086.59;;;34.56;32.71
61528;BME280;47395;42.032;-8.634;2022-07-21T08:02:19;101071.91;;;35.06;32.19
61528;BME280;47395;42.032;-8.634;2022-07-21T08:04:19;101074.31;;;34.65;31.95
61528;BME280;47395;42.032;-8.634;2022-07-21T08:06:20;101080.31;;;33.53;34.65
61528;BME280;47395;42.032;-8.634;2022-07-21T08:08:23;101084.47;;;34.39;33.08
61528;BME280;47395;42.032;-8.634;2022-07-21T08:10:24;101086.59;;;33.54;34.01
61528;BME280;47395;42.032;-8.634;2022-07-21T08:12:25;101089.81;;;34.90;32.16
61528;BME280;47395;42.032;-8.634;2022-07-21T08:14:26;101098.78;;;34.79;32.23
61528;BME280;47395;42.032;-8.634;2022-07-21T08:16:27;101085.31;;;35.14;31.77
61528;BME280;47395;42.032;-8.634;2022-07-21T08:18:28;101087.50;;;34.87;31.72
61528;BME280;47395;42.032;-8.634;2022-07-21T08:20:28;101082.50;;;34.65;32.30
61528;BME280;47395;42.032;-8.634;2022-07-21T08:22:30;101090.69;;;35.02;31.51
61528;BME280;47395;42.032;-8.634;2022-07-21T08:24:31;101091.59;;;35.46;31.12
61528;BME280;47395;42.032;-8.634;2022-07-21T08:26:32;101093.09;;;35.30;31.63
61528;BME280;47395;42.032;-8.634;2022-07-21T08:28:34;101087.34;;;36.16;30.07
61528;BME280;47395;42.032;-8.634;2022-07-21T08:30:35;101090.31;;;36.15;30.32
61528;BME280;47395;42.032;-8.634;2022-07-21T08:32:36;101081.41;;;36.84;28.72
61528;BME280;47395;42.032;-8.634;2022-07-21T08:34:38;101096.97;;;36.07;29.64
61528;BME280;47395;42.032;-8.634;2022-07-21T08:36:39;101090.22;;;36.99;28.42
61528;BME280;47395;42.032;-8.634;2022-07-21T08:38:40;101089.94;;;36.59;29.46
61528;BME280;47395;42.032;-8.634;2022-07-21T08:40:44;101091.59;;;36.72;29.52
61528;BME280;47395;42.032;-8.634;2022-07-21T08:42:46;101089.66;;;36.84;29.71
61528;BME280;47395;42.032;-8.634;2022-07-21T08:44:47;101090.13;;;36.81;29.24
61528;BME280;47395;42.032;-8.634;2022-07-21T08:46:49;101094.13;;;37.78;27.89
61528;BME280;47395;42.032;-8.634;2022-07-21T08:48:51;101102.97;;;37.63;28.08
61528;BME280;47395;42.032;-8.634;2022-07-21T08:50:52;101101.91;;;38.77;27.06
61528;BME280;47395;42.032;-8.634;2022-07-21T08:52:53;101104.06;;;38.98;26.58
61528;BME280;47395;42.032;-8.634;2022-07-21T08:54:56;101098.13;;;38.22;26.56
61528;BME280;47395;42.032;-8.634;2022-07-21T08:56:57;101106.78;;;38.31;26.67
61528;BME280;47395;42.032;-8.634;2022-07-21T08:58:58;101115.56;;;38.10;27.03
61528;BME280;47395;42.032;-8.634;2022-07-21T09:00:58;101113.19;;;38.98;26.39
61528;BME280;47395;42.032;-8.634;2022-07-21T09:03:22;101115.28;;;39.68;25.50
61528;BME280;47395;42.032;-8.634;2022-07-21T09:05:24;101110.66;;;40.12;25.03
61528;BME280;47395;42.032;-8.634;2022-07-21T09:07:24;101106.16;;;41.13;23.60
61528;BME280;47395;42.032;-8.634;2022-07-21T09:09:27;101111.19;;;41.32;23.43
61528;BME280;47395;42.032;-8.634;2022-07-21T09:11:28;101114.63;;;40.32;24.27
61528;BME280;47395;42.032;-8.634;2022-07-21T09:13:31;101102.19;;;40.83;23.58
61528;BME280;47395;42.032;-8.634;2022-07-21T09:15:33;101107.28;;;40.48;23.88
61528;BME280;47395;42.032;-8.634;2022-07-21T09:17:34;101103.69;;;41.11;23.57
61528;BME280;47395;42.032;-8.634;2022-07-21T09:19:37;101105.91;;;41.25;23.04
61528;BME280;47395;42.032;-8.634;2022-07-21T09:21:43;101099.84;;;40.43;24.21
61528;BME280;47395;42.032;-8.634;2022-07-21T09:23:45;101098.69;;;41.14;23.24
61528;BME280;47395;42.032;-8.634;2022-07-21T09:25:51;101101.03;;;40.20;24.40
61528;BME280;47395;42.032;-8.634;2022-07-21T09:28:24;101104.47;;;41.02;23.63
61528;BME280;47395;42.032;-8.634;2022-07-21T09:30:25;101091.22;;;41.04;23.78
61528;BME280;47395;42.032;-8.634;2022-07-21T09:32:33;101099.03;;;41.69;22.80
61528;BME280;47395;42.032;-8.634;2022-07-21T09:34:35;101099.03;;;41.54;23.07
61528;BME280;47395;42.032;-8.634;2022-07-21T09:36:35;101097.13;;;41.80;22.85
61528;BME280;47395;42.032;-8.634;2022-07-21T09:38:53;101095.13;;;42.17;22.95
61528;BME280;47395;42.032;-8.634;2022-07-21T09:41:08;101095.78;;;43.20;21.19
61528;BME280;47395;42.032;-8.634;2022-07-21T09:43:09;101094.47;;;43.12;21.33
61528;BME280;47395;42.032;-8.634;2022-07-21T09:45:14;101088.94;;;42.46;21.90
61528;BME280;47395;42.032;-8.634;2022-07-21T09:47:18;101086.13;;;42.57;21.73
61528;BME280;47395;42.032;-8.634;2022-07-21T09:49:30;101096.97;;;42.48;22.05
61528;BME280;47395;42.032;-8.634;2022-07-21T09:51:34;101096.53;;;42.86;21.71
61528;BME280;47395;42.032;-8.634;2022-07-21T09:54:02;101101.16;;;43.76;20.58
61528;BME280;47395;42.032;-8.634;2022-07-21T09:56:03;101097.25;;;43.02;20.82
61528;BME280;47395;42.032;-8.634;2022-07-21T09:58:04;101105.31;;;43.43;21.29
61528;BME280;47395;42.032;-8.634;2022-07-21T10:00:08;101096.56;;;42.81;21.59
61528;BME280;47395;42.032;-8.634;2022-07-21T10:02:15;101092.06;;;44.29;19.73
61528;BME280;47395;42.032;-8.634;2022-07-21T10:04:19;101090.69;;;44.51;19.76
61528;BME280;47395;42.032;-8.634;2022-07-21T10:06:26;101091.38;;;43.89;20.85
61528;BME280;47395;42.032;-8.634;2022-07-21T10:08:28;101078.19;;;43.35;21.68
61528;BME280;47395;42.032;-8.634;2022-07-21T10:10:29;101088.41;;;43.45;20.81
61528;BME280;47395;42.032;-8.634;2022-07-21T10:12:31;101091.09;;;43.55;21.15
61528;BME280;47395;42.032;-8.634;2022-07-21T10:14:32;101085.00;;;43.83;21.08
61528;BME280;47395;42.032;-8.634;2022-07-21T10:16:32;101091.66;;;43.87;21.05
61528;BME280;47395;42.032;-8.634;2022-07-21T10:18:49;101086.91;;;44.17;20.42
61528;BME280;47395;42.032;-8.634;2022-07-21T10:20:59;101092.28;;;43.79;21.00
61528;BME280;47395;42.032;-8.634;2022-07-21T10:23:40;101083.38;;;43.82;21.14
61528;BME280;47395;42.032;-8.634;2022-07-21T10:25:42;101090.22;;;43.60;20.87
61528;BME280;47395;42.032;-8.634;2022-07-21T10:28:18;101078.03;;;43.21;21.76
61528;BME280;47395;42.032;-8.634;2022-07-21T10:30:46;101070.84;;;43.20;21.68
61528;BME280;47395;42.032;-8.634;2022-07-21T10:32:49;101077.88;;;43.07;22.03
61528;BME280;47395;42.032;-8.634;2022-07-21T10:34:52;101061.72;;;42.59;22.25
61528;BME280;47395;42.032;-8.634;2022-07-21T10:36:53;101069.28;;;43.73;21.08
61528;BME280;47395;42.032;-8.634;2022-07-21T10:39:27;101055.84;;;43.21;21.46